Terminal Aerodrome Forecast
Issued by NWS

Home | Current Version | Previous Version | Text Only | Print | Product List | Glossary On
Versions: 1 2 3 4 5 6 7 8 9 10 11 12 13 14
000
FTUS43 KGRB 251128
TAFRHI
TAF
KRHI 251128Z 2512/2612 VRB03KT P6SM SCT060 SCT090
      TEMPO 2512/2516 BKN060
     FM251600 20004KT P6SM VCSH SCT030 BKN070
     FM251900 VRB03KT P6SM VCTS BKN050CB
      TEMPO 2520/2524 5SM -SHRA BKN015
     FM260100 VRB03KT P6SM VCSH BKN015
     FM260700 06004KT 4SM -SHRA BR VCSH BKN008=

USA.gov is the U.S. government's official web portal to all federal, state and local government web resources and services.